Airfield :
LOGIN :

Register | Disclaimer

   EN    FR    IT 

 










Legend :    VFR   Marginal VFR   IFR   Intensive IFR   Very Intensive IFR
Visi :
Ceiling :
>= 8 km
>= 3000ft
5 to 8 km
1000 to 3000 ft
1500m to 5 km
500 to 1000 ft
800 to 1500m
200 to 500 ft
< 800m
< 200 ft
Symbols :   Thunderstorms  Fog  Heavy snow  Heavy precipitations  Wind > 20 kt
SIGMETs :     Misc.  Thunderstorms  Icing  Turbulence  Mountain Waves  Volcanic Ashes






- Airport Elevation : 56 ft
- IATA code : TRD


ENVA - Trondheim , Værnes

CURRENT METAR :
  • 091720Z 35005KT 9999 VCSH FEW053 SCT070 M04/M05 Q0997 RMK WIND 670FT 31014KT

EXPIRED METARs :
  • 091650Z 28006KT 9999 VCSH FEW020CB SCT029 BKN038 M03/M04 Q0996 TEMPO 31012KT 0800 SHSN VV008 RMK WIND 670FT 29011KT
  • 091620Z VRB06KT 6000 -SHSN FEW020CB SCT029 BKN038 M04/M05 Q0996 RMK WIND 670FT 31014G24KT
  • 091550Z 00000KT 9999 VCSH FEW020CB SCT029 BKN038 M05/M05 Q0995 TEMPO 31012KT 0800 SHSN VV008 RMK WIND 670FT 32011KT
  • 091520Z VRB03KT 9999 VCSH FEW009 SCT022CB BKN046 M05/M06 Q0994 RMK WIND 670FT 32006KT
  • 091450Z 09004KT 9999 VCSH FEW011 SCT017CB BKN025 M05/M06 Q0993 TEMPO 31012KT 0800 SHSN VV008 RMK WIND 670FT 32009KT

TAF TAF ENVA
Valid from the 09 at 12:00 until the 10 at 12:00 UTC


0912/1012 29008KT 9999 SCT012 BKN025
TEMPO 0912/1003 31015G25KT 0800 SHSN VV008
BECMG 1009/1012 13012KT



MET'MAP, your aeronautical weather chart ! - Copyright ORBIFLY December 2007 - Disclaimer

ORBIFLY MET'MAP TEAM :

Programming & Development : Alexandra Zaïnal
Concept & original design : Baudouin d'Aumeries
Assistance for programming : Marc-Olivier Méhu
Technical & hardware support : Manuel Goepfert

Contact : metmap@orbifly.com




SOURCES & CREDITS :

   NOAA